Time;durP1;ratioP1;P1;durP2;ratioP2;P2;SDS_P1;SDS_P2;PMS_P1;PMS_P2;Temp;Humidity;BMP_temperature;BMP_pressure;BME280_temperature;BME280_humidity;BME280_pressure;Samples;Min_cycle;Max_cycle;Signal;HPM_P1;HPM_P2
2021/12/29 00:00:12;;;;;;;58.42;12.95;;;;;;;;;;4966365;28;20403;-86
2021/12/29 00:02:39;;;;;;;60.65;15.23;;;;;;;;;;4966248;28;20038;-85
2021/12/29 00:05:05;;;;;;;50.55;13.85;;;;;;;;;;4968811;28;20073;-85
2021/12/29 00:07:31;;;;;;;66.88;14.40;;;;;;;;;;4968839;28;20516;-85
2021/12/29 00:10:00;;;;;;;44.25;11.35;;;;;;;;;;4964774;28;20607;-85
2021/12/29 00:12:26;;;;;;;61.50;12.13;;;;;;;;;;4965669;28;20109;-85
2021/12/29 00:14:56;;;;;;;62.53;14.07;;;;;;;;;;4986008;28;20030;-85
2021/12/29 00:17:23;;;;;;;35.45;9.90;;;;;;;;;;4964945;28;20034;-85
2021/12/29 00:19:49;;;;;;;45.83;12.93;;;;;;;;;;4984013;28;20494;-85
2021/12/29 00:22:15;;;;;;;38.85;10.82;;;;;;;;;;4966197;28;20491;-85
2021/12/29 00:24:41;;;;;;;39.25;11.73;;;;;;;;;;4967084;28;20081;-85
2021/12/29 00:27:08;;;;;;;35.50;11.77;;;;;;;;;;4965125;28;20038;-85
2021/12/29 00:29:34;;;;;;;22.45;8.82;;;;;;;;;;4979076;28;20026;-84
2021/12/29 00:32:00;;;;;;;33.33;9.35;;;;;;;;;;4967712;28;20590;-85
2021/12/29 00:34:26;;;;;;;21.35;7.03;;;;;;;;;;4965068;28;20026;-85
2021/12/29 00:36:52;;;;;;;32.45;9.32;;;;;;;;;;4982023;28;20036;-85
2021/12/29 00:39:18;;;;;;;23.38;7.47;;;;;;;;;;4964512;28;20035;-84
2021/12/29 00:41:44;;;;;;;31.25;8.35;;;;;;;;;;4966337;28;20472;-85
2021/12/29 00:44:10;;;;;;;37.33;9.50;;;;;;;;;;4957311;28;20248;-84
2021/12/29 00:46:52;;;;;;;29.98;8.63;;;;;;;;;;4985257;28;20205;-85
2021/12/29 00:49:36;;;;;;;36.75;10.50;;;;;;;;;;4976047;28;20065;-84
2021/12/29 00:52:05;;;;;;;26.67;8.55;;;;;;;;;;4960540;28;20037;-85
2021/12/29 00:54:31;;;;;;;41.40;10.45;;;;;;;;;;4965194;28;20039;-85
2021/12/29 00:56:57;;;;;;;24.50;6.68;;;;;;;;;;4962800;28;20034;-85
2021/12/29 00:59:23;;;;;;;34.90;7.97;;;;;;;;;;4967410;28;20085;-85
2021/12/29 01:01:50;;;;;;;39.38;8.90;;;;;;;;;;4959832;28;20487;-84
2021/12/29 01:04:17;;;;;;;23.70;6.60;;;;;;;;;;4965192;28;20113;-85
2021/12/29 01:06:43;;;;;;;44.40;10.93;;;;;;;;;;4977581;28;20045;-85
2021/12/29 01:09:09;;;;;;;51.13;11.75;;;;;;;;;;4964234;28;20069;-85
2021/12/29 01:11:35;;;;;;;73.18;13.05;;;;;;;;;;4963993;28;20027;-85
2021/12/29 01:14:01;;;;;;;57.65;12.35;;;;;;;;;;4979065;28;20053;-85
2021/12/29 01:19:18;;;;;;;59.30;12.35;;;;;;;;;;4984861;28;20030;-85
2021/12/29 01:21:46;;;;;;;85.90;15.57;;;;;;;;;;4967670;28;20722;-85
2021/12/29 01:24:13;;;;;;;86.00;13.82;;;;;;;;;;4964998;28;20627;-85
2021/12/29 01:26:41;;;;;;;46.85;11.20;;;;;;;;;;4982475;28;20109;-84
2021/12/29 01:29:07;;;;;;;47.10;11.98;;;;;;;;;;4962801;28;20061;-85
2021/12/29 01:31:34;;;;;;;74.53;15.68;;;;;;;;;;4976400;28;20533;-85
2021/12/29 01:34:00;;;;;;;64.43;13.65;;;;;;;;;;4967213;28;20106;-85
2021/12/29 01:36:26;;;;;;;80.10;17.13;;;;;;;;;;4977837;28;20543;-85
2021/12/29 01:38:53;;;;;;;59.67;12.32;;;;;;;;;;4968169;28;20030;-85
2021/12/29 01:41:19;;;;;;;58.10;13.70;;;;;;;;;;4956172;28;20498;-85
2021/12/29 01:43:45;;;;;;;48.45;11.20;;;;;;;;;;4966161;28;20153;-85
2021/12/29 01:46:11;;;;;;;88.25;16.52;;;;;;;;;;4976512;28;20038;-85
2021/12/29 01:48:37;;;;;;;56.55;14.40;;;;;;;;;;4980790;28;20118;-85
2021/12/29 01:51:03;;;;;;;71.65;15.27;;;;;;;;;;4972024;28;20541;-85
2021/12/29 01:53:32;;;;;;;38.30;10.50;;;;;;;;;;4965233;28;20553;-85
2021/12/29 01:55:58;;;;;;;68.60;14.73;;;;;;;;;;4960004;28;20582;-85
2021/12/29 01:58:25;;;;;;;90.57;16.77;;;;;;;;;;4963132;28;20461;-85
2021/12/29 02:00:52;;;;;;;69.60;14.82;;;;;;;;;;4966173;28;20266;-85
2021/12/29 02:03:18;;;;;;;63.70;13.98;;;;;;;;;;4959304;28;20554;-85
2021/12/29 02:05:45;;;;;;;60.80;13.25;;;;;;;;;;4979657;28;20033;-85
2021/12/29 02:08:11;;;;;;;86.82;16.88;;;;;;;;;;4976334;28;20037;-85
2021/12/29 02:10:46;;;;;;;100.50;18.90;;;;;;;;;;4980249;28;20064;-85
2021/12/29 02:13:13;;;;;;;89.65;16.70;;;;;;;;;;4961368;28;20048;-85
2021/12/29 02:15:39;;;;;;;82.53;16.33;;;;;;;;;;4964916;28;20109;-84
2021/12/29 02:18:13;;;;;;;112.28;19.80;;;;;;;;;;4962906;28;20053;-85
2021/12/29 02:20:39;;;;;;;74.00;17.48;;;;;;;;;;4961933;28;20027;-84
2021/12/29 02:23:14;;;;;;;96.75;19.65;;;;;;;;;;4962680;28;20481;-85
2021/12/29 02:25:53;;;;;;;97.72;18.70;;;;;;;;;;4960629;28;20026;-84
2021/12/29 02:28:30;;;;;;;87.88;18.02;;;;;;;;;;4970665;28;20029;-84
2021/12/29 02:30:58;;;;;;;54.60;14.32;;;;;;;;;;4957045;28;20708;-85
2021/12/29 02:33:24;;;;;;;90.88;18.10;;;;;;;;;;4978870;28;20077;-85
2021/12/29 02:35:50;;;;;;;87.30;17.42;;;;;;;;;;4959043;28;20018;-85
2021/12/29 02:38:19;;;;;;;92.97;17.48;;;;;;;;;;4957584;28;20387;-85
2021/12/29 02:40:49;;;;;;;57.30;14.75;;;;;;;;;;4961415;28;20113;-84
2021/12/29 02:43:19;;;;;;;46.22;11.20;;;;;;;;;;4975659;28;20415;-85
2021/12/29 02:45:49;;;;;;;58.45;14.52;;;;;;;;;;4980103;28;20026;-85
2021/12/29 02:48:16;;;;;;;59.20;14.00;;;;;;;;;;4969842;28;20419;-85
2021/12/29 02:50:43;;;;;;;51.88;12.70;;;;;;;;;;4947692;28;20022;-85
2021/12/29 02:53:09;;;;;;;42.97;9.05;;;;;;;;;;4936413;28;20035;-85
2021/12/29 02:55:36;;;;;;;55.92;12.25;;;;;;;;;;4960831;28;20026;-85
2021/12/29 02:58:02;;;;;;;41.95;10.50;;;;;;;;;;4941080;28;20158;-85
2021/12/29 03:00:28;;;;;;;42.95;10.90;;;;;;;;;;4942805;28;20117;-85
2021/12/29 03:02:54;;;;;;;37.53;10.25;;;;;;;;;;4943068;28;20500;-85
2021/12/29 03:05:23;;;;;;;60.58;12.38;;;;;;;;;;4957836;28;20511;-85
2021/12/29 03:07:50;;;;;;;57.65;12.70;;;;;;;;;;4946340;28;20324;-85
2021/12/29 03:10:16;;;;;;;64.82;12.40;;;;;;;;;;4942555;28;20383;-85
2021/12/29 03:12:42;;;;;;;59.97;11.15;;;;;;;;;;4944034;28;20039;-85
2021/12/29 03:15:08;;;;;;;63.65;12.35;;;;;;;;;;4943830;28;20035;-85
2021/12/29 03:17:34;;;;;;;43.30;10.35;;;;;;;;;;4961245;28;20038;-84
2021/12/29 03:20:00;;;;;;;70.22;13.93;;;;;;;;;;4945033;28;20034;-86
2021/12/29 03:22:26;;;;;;;63.22;12.27;;;;;;;;;;4940753;28;20027;-85
2021/12/29 03:24:52;;;;;;;72.00;13.82;;;;;;;;;;4942376;28;20499;-85
2021/12/29 03:27:19;;;;;;;48.53;11.10;;;;;;;;;;4937053;28;20039;-85
2021/12/29 03:29:45;;;;;;;69.70;13.52;;;;;;;;;;4944149;28;20038;-85
2021/12/29 03:32:20;;;;;;;58.55;13.43;;;;;;;;;;4943684;28;20054;-85
2021/12/29 03:34:46;;;;;;;51.17;10.18;;;;;;;;;;4958715;28;20484;-85
2021/12/29 03:37:13;;;;;;;65.22;14.70;;;;;;;;;;4953354;28;20018;-85
2021/12/29 03:39:39;;;;;;;37.75;10.02;;;;;;;;;;4957856;28;20035;-85
2021/12/29 03:42:06;;;;;;;85.75;14.55;;;;;;;;;;4943527;28;20030;-85
2021/12/29 03:44:32;;;;;;;61.95;14.07;;;;;;;;;;4938596;28;20035;-85
2021/12/29 03:46:58;;;;;;;70.28;15.80;;;;;;;;;;4962650;28;20070;-85
2021/12/29 03:49:24;;;;;;;64.45;14.93;;;;;;;;;;4941867;28;20496;-85
2021/12/29 03:51:50;;;;;;;76.28;13.93;;;;;;;;;;4960487;28;20442;-85
2021/12/29 03:54:16;;;;;;;83.80;17.45;;;;;;;;;;4941523;28;20122;-85
2021/12/29 03:56:42;;;;;;;89.50;17.25;;;;;;;;;;4948039;28;20034;-85
2021/12/29 03:59:09;;;;;;;97.45;18.08;;;;;;;;;;4945763;28;20434;-85
2021/12/29 04:01:35;;;;;;;71.75;16.73;;;;;;;;;;4945228;28;20058;-85
2021/12/29 04:04:01;;;;;;;74.40;15.65;;;;;;;;;;4946566;28;20115;-85
2021/12/29 04:06:27;;;;;;;102.85;21.15;;;;;;;;;;4949165;28;20482;-85
2021/12/29 04:08:53;;;;;;;92.40;19.52;;;;;;;;;;4948304;28;20031;-85
2021/12/29 04:11:20;;;;;;;94.15;16.60;;;;;;;;;;4948875;28;20030;-85
2021/12/29 04:13:47;;;;;;;89.72;17.75;;;;;;;;;;4948793;28;20573;-85
2021/12/29 04:16:16;;;;;;;83.88;16.30;;;;;;;;;;4943655;28;20019;-87
2021/12/29 04:18:55;;;;;;;79.82;17.63;;;;;;;;;;4944068;28;20647;-85
2021/12/29 04:21:22;;;;;;;61.55;13.20;;;;;;;;;;4945298;28;20033;-84
2021/12/29 04:23:48;;;;;;;71.55;16.48;;;;;;;;;;4947190;28;20041;-85
2021/12/29 04:26:14;;;;;;;91.10;18.27;;;;;;;;;;4946763;28;20034;-85
2021/12/29 04:28:40;;;;;;;101.57;20.27;;;;;;;;;;4951121;28;20042;-84
2021/12/29 04:31:08;;;;;;;73.35;16.15;;;;;;;;;;4958299;28;20046;-85
2021/12/29 04:33:35;;;;;;;78.72;16.88;;;;;;;;;;4944768;28;20183;-85
2021/12/29 04:36:01;;;;;;;42.30;10.23;;;;;;;;;;4960898;28;20066;-85
2021/12/29 04:38:27;;;;;;;78.63;16.10;;;;;;;;;;4943506;28;20499;-85
2021/12/29 04:40:54;;;;;;;81.93;17.40;;;;;;;;;;4949467;28;20035;-85
2021/12/29 04:43:20;;;;;;;81.50;15.35;;;;;;;;;;4940717;28;20476;-85
2021/12/29 04:45:47;;;;;;;57.25;13.77;;;;;;;;;;4964993;28;20042;-85
2021/12/29 04:48:14;;;;;;;62.92;15.48;;;;;;;;;;4947606;28;20051;-85
2021/12/29 04:50:41;;;;;;;54.10;15.25;;;;;;;;;;4951128;28;20034;-84
2021/12/29 04:53:08;;;;;;;51.50;11.32;;;;;;;;;;4946125;28;20026;-85
2021/12/29 04:55:35;;;;;;;72.68;15.70;;;;;;;;;;4937876;28;20031;-85
2021/12/29 04:58:01;;;;;;;62.58;17.70;;;;;;;;;;4942451;28;20031;-85
2021/12/29 05:00:28;;;;;;;63.38;15.43;;;;;;;;;;4942190;28;20041;-85
2021/12/29 05:02:55;;;;;;;78.65;20.13;;;;;;;;;;4946628;28;20509;-85
2021/12/29 05:10:42;;;;;;;79.60;17.05;;;;;;;;;;4958280;28;20122;-85
2021/12/29 05:13:08;;;;;;;102.18;20.45;;;;;;;;;;4945016;28;20034;-85
2021/12/29 05:15:34;;;;;;;110.93;22.67;;;;;;;;;;4946202;28;20034;-85
2021/12/29 05:18:01;;;;;;;98.65;21.35;;;;;;;;;;4962995;28;20034;-86
2021/12/29 05:20:28;;;;;;;70.38;17.80;;;;;;;;;;4961959;28;20063;-85
2021/12/29 05:22:55;;;;;;;91.35;20.20;;;;;;;;;;4958306;28;20086;-85
2021/12/29 05:25:21;;;;;;;88.30;18.08;;;;;;;;;;4944774;28;20131;-85
2021/12/29 05:27:47;;;;;;;52.88;13.50;;;;;;;;;;4945494;28;20034;-85
2021/12/29 05:30:13;;;;;;;54.47;13.70;;;;;;;;;;4945035;28;20050;-85
2021/12/29 05:32:39;;;;;;;55.80;13.82;;;;;;;;;;4942251;28;20026;-84
2021/12/29 05:35:06;;;;;;;66.75;15.23;;;;;;;;;;4942671;28;20483;-85
2021/12/29 05:37:32;;;;;;;86.68;18.38;;;;;;;;;;4944235;28;20031;-84
2021/12/29 05:39:58;;;;;;;70.28;14.68;;;;;;;;;;4944229;28;20031;-84
2021/12/29 05:42:24;;;;;;;103.10;21.73;;;;;;;;;;4958189;28;20499;-84
2021/12/29 05:44:50;;;;;;;85.10;17.50;;;;;;;;;;4946373;28;20498;-83
2021/12/29 05:47:16;;;;;;;92.88;19.48;;;;;;;;;;4952649;28;20489;-84
2021/12/29 05:49:42;;;;;;;89.88;19.50;;;;;;;;;;4936568;28;20039;-84
2021/12/29 05:52:10;;;;;;;80.47;18.80;;;;;;;;;;4962650;28;20399;-84
2021/12/29 05:54:36;;;;;;;66.68;17.27;;;;;;;;;;4945096;28;20531;-84
2021/12/29 05:57:03;;;;;;;79.60;18.33;;;;;;;;;;4946685;28;20468;-84
2021/12/29 05:59:29;;;;;;;79.07;18.63;;;;;;;;;;4944649;28;20030;-84
2021/12/29 06:01:55;;;;;;;62.70;15.30;;;;;;;;;;4957215;28;20475;-84
2021/12/29 06:04:21;;;;;;;73.13;19.67;;;;;;;;;;4939899;28;20081;-84
2021/12/29 06:06:47;;;;;;;82.90;15.50;;;;;;;;;;4942193;28;20098;-84
2021/12/29 06:09:14;;;;;;;75.15;15.75;;;;;;;;;;4961833;28;20026;-85
2021/12/29 06:11:40;;;;;;;80.97;18.48;;;;;;;;;;4943862;28;20058;-85
2021/12/29 06:14:06;;;;;;;65.22;17.48;;;;;;;;;;4945614;28;20026;-85
2021/12/29 06:16:32;;;;;;;69.25;16.83;;;;;;;;;;4938014;28;20027;-85
2021/12/29 06:18:58;;;;;;;60.78;14.25;;;;;;;;;;4947720;28;20406;-84
2021/12/29 06:21:24;;;;;;;58.92;14.85;;;;;;;;;;4944504;28;20066;-84
2021/12/29 06:23:50;;;;;;;85.05;19.27;;;;;;;;;;4945564;28;20066;-85
2021/12/29 06:26:16;;;;;;;59.10;11.75;;;;;;;;;;4948593;28;20062;-85
2021/12/29 06:28:44;;;;;;;69.22;16.92;;;;;;;;;;4957163;28;20050;-85
2021/12/29 06:31:10;;;;;;;85.63;19.55;;;;;;;;;;4947463;28;20026;-85
2021/12/29 06:33:36;;;;;;;67.72;17.52;;;;;;;;;;4941838;28;20153;-85
2021/12/29 06:36:02;;;;;;;91.00;20.05;;;;;;;;;;4958270;28;20042;-85
2021/12/29 06:38:28;;;;;;;84.45;19.05;;;;;;;;;;4939134;28;20027;-85
2021/12/29 06:41:00;;;;;;;57.97;14.68;;;;;;;;;;4944380;28;20048;-85
2021/12/29 06:43:27;;;;;;;71.28;16.83;;;;;;;;;;4949031;28;20030;-85
2021/12/29 06:45:59;;;;;;;75.30;18.70;;;;;;;;;;4944711;28;20130;-85
2021/12/29 06:48:25;;;;;;;89.95;19.23;;;;;;;;;;4950277;28;20380;-85
2021/12/29 06:50:51;;;;;;;67.95;17.80;;;;;;;;;;4958546;28;20050;-85
2021/12/29 06:53:17;;;;;;;67.13;14.70;;;;;;;;;;4946044;28;20570;-85
2021/12/29 06:55:44;;;;;;;77.75;18.63;;;;;;;;;;4937829;28;20522;-85
2021/12/29 06:58:10;;;;;;;95.88;18.98;;;;;;;;;;4944718;28;20037;-85
2021/12/29 07:00:37;;;;;;;87.03;19.55;;;;;;;;;;4955464;28;20028;-84
2021/12/29 07:03:03;;;;;;;80.35;18.60;;;;;;;;;;4944388;28;20110;-85
2021/12/29 07:05:30;;;;;;;102.03;19.25;;;;;;;;;;4942157;28;20588;-85
2021/12/29 07:07:57;;;;;;;108.78;20.67;;;;;;;;;;4951740;28;20296;-85
2021/12/29 07:10:23;;;;;;;106.03;20.98;;;;;;;;;;4942993;28;20399;-85
2021/12/29 07:12:49;;;;;;;101.07;20.23;;;;;;;;;;4944879;28;20058;-87
2021/12/29 07:15:15;;;;;;;82.50;19.58;;;;;;;;;;4937699;28;20138;-85
2021/12/29 07:17:41;;;;;;;88.05;17.13;;;;;;;;;;4945837;28;20146;-85
2021/12/29 07:20:08;;;;;;;114.55;21.13;;;;;;;;;;4940373;28;20125;-85
2021/12/29 07:22:34;;;;;;;109.10;19.92;;;;;;;;;;4938849;28;20117;-85
2021/12/29 07:25:00;;;;;;;112.15;22.48;;;;;;;;;;4943805;28;20035;-85
2021/12/29 07:27:26;;;;;;;94.15;19.77;;;;;;;;;;4931296;28;20317;-85
2021/12/29 07:29:52;;;;;;;88.30;19.15;;;;;;;;;;4948225;28;20039;-85
2021/12/29 07:32:19;;;;;;;146.07;24.10;;;;;;;;;;4944737;28;20037;-85
2021/12/29 07:34:45;;;;;;;106.65;20.50;;;;;;;;;;4950373;28;20046;-85
2021/12/29 07:37:12;;;;;;;109.55;19.90;;;;;;;;;;4949858;28;20427;-86
2021/12/29 07:39:38;;;;;;;132.70;23.77;;;;;;;;;;4945459;28;20924;-85
2021/12/29 07:42:05;;;;;;;133.98;21.90;;;;;;;;;;4951484;28;20041;-85
2021/12/29 07:44:31;;;;;;;115.10;21.00;;;;;;;;;;4945557;28;20496;-85
2021/12/29 07:46:59;;;;;;;103.10;20.45;;;;;;;;;;4952262;28;20023;-85
2021/12/29 07:49:25;;;;;;;142.55;23.38;;;;;;;;;;4949646;28;20078;-85
2021/12/29 07:51:52;;;;;;;97.70;20.00;;;;;;;;;;4947817;28;20035;-85
2021/12/29 07:54:18;;;;;;;98.45;18.35;;;;;;;;;;4940810;28;20034;-85
2021/12/29 07:56:44;;;;;;;105.18;21.65;;;;;;;;;;4947197;28;20483;-85
2021/12/29 07:59:11;;;;;;;106.15;21.90;;;;;;;;;;4945603;28;20206;-85
2021/12/29 08:01:39;;;;;;;99.97;19.05;;;;;;;;;;4947395;28;20031;-86
2021/12/29 08:04:05;;;;;;;73.93;17.23;;;;;;;;;;4962403;28;20034;-85
2021/12/29 08:06:31;;;;;;;102.20;19.25;;;;;;;;;;4958008;28;20038;-82
2021/12/29 08:08:57;;;;;;;102.00;18.48;;;;;;;;;;4948801;28;20509;-83
2021/12/29 08:11:23;;;;;;;82.82;15.50;;;;;;;;;;4942841;28;20056;-82
2021/12/29 08:13:49;;;;;;;71.45;16.70;;;;;;;;;;4945619;28;20039;-83
2021/12/29 08:16:15;;;;;;;89.60;17.95;;;;;;;;;;4945997;28;20054;-83
2021/12/29 08:18:41;;;;;;;86.50;16.52;;;;;;;;;;4947886;28;20438;-83
2021/12/29 08:21:08;;;;;;;84.72;17.85;;;;;;;;;;4944683;28;20031;-82
2021/12/29 08:23:34;;;;;;;87.85;18.83;;;;;;;;;;4946848;28;20460;-83
2021/12/29 08:26:00;;;;;;;99.25;19.20;;;;;;;;;;4948447;28;20023;-83
2021/12/29 08:28:26;;;;;;;83.40;17.50;;;;;;;;;;4941136;28;20030;-82
2021/12/29 08:30:54;;;;;;;83.22;17.70;;;;;;;;;;4948811;28;20035;-83
2021/12/29 08:33:20;;;;;;;89.18;17.90;;;;;;;;;;4943539;28;20024;-83
2021/12/29 08:35:47;;;;;;;90.43;18.30;;;;;;;;;;4945013;28;20074;-82
2021/12/29 08:38:13;;;;;;;94.22;19.27;;;;;;;;;;4946381;28;20498;-83
2021/12/29 08:40:39;;;;;;;72.93;17.50;;;;;;;;;;4946164;28;20061;-82
2021/12/29 08:43:05;;;;;;;75.78;15.57;;;;;;;;;;4942794;28;20571;-82
2021/12/29 08:45:32;;;;;;;71.53;16.58;;;;;;;;;;4965898;28;20027;-82
2021/12/29 08:48:04;;;;;;;43.38;11.57;;;;;;;;;;4955382;28;20050;-83
2021/12/29 08:50:37;;;;;;;84.82;16.25;;;;;;;;;;4978159;28;20089;-83
2021/12/29 08:53:04;;;;;;;60.35;12.38;;;;;;;;;;4963529;28;20057;-83
2021/12/29 08:55:34;;;;;;;56.67;11.75;;;;;;;;;;4963045;28;20438;-83
2021/12/29 08:58:01;;;;;;;95.18;17.02;;;;;;;;;;4964533;28;20057;-83
2021/12/29 09:00:27;;;;;;;76.07;17.40;;;;;;;;;;4977135;28;20089;-83
2021/12/29 09:02:53;;;;;;;88.20;17.65;;;;;;;;;;4966868;28;20069;-83
2021/12/29 09:05:20;;;;;;;100.22;18.98;;;;;;;;;;4959836;28;20486;-82
2021/12/29 09:07:46;;;;;;;78.45;16.83;;;;;;;;;;4967690;28;20503;-82
2021/12/29 09:10:17;;;;;;;54.88;15.13;;;;;;;;;;4963287;28;20447;-82
2021/12/29 09:12:43;;;;;;;71.65;16.65;;;;;;;;;;4962272;28;20433;-85
2021/12/29 09:15:09;;;;;;;68.45;13.82;;;;;;;;;;4968560;28;20053;-86
2021/12/29 09:17:36;;;;;;;68.10;16.73;;;;;;;;;;4961077;28;20018;-85
2021/12/29 09:20:02;;;;;;;69.03;14.23;;;;;;;;;;4970131;28;20034;-85
2021/12/29 09:22:28;;;;;;;55.72;13.15;;;;;;;;;;4968914;28;20030;-85
2021/12/29 09:24:54;;;;;;;76.53;15.15;;;;;;;;;;4958695;28;20046;-85
2021/12/29 09:27:21;;;;;;;64.07;14.38;;;;;;;;;;4960400;28;20077;-85
2021/12/29 09:29:47;;;;;;;81.90;16.42;;;;;;;;;;4964364;28;20082;-85
2021/12/29 09:32:13;;;;;;;84.65;16.25;;;;;;;;;;4963924;28;20035;-85
2021/12/29 09:34:39;;;;;;;68.03;14.15;;;;;;;;;;4965277;28;20037;-85
2021/12/29 09:37:05;;;;;;;95.68;17.30;;;;;;;;;;4964342;28;20026;-85
2021/12/29 09:39:32;;;;;;;70.70;16.52;;;;;;;;;;4961088;28;20030;-85
2021/12/29 09:41:58;;;;;;;89.50;15.88;;;;;;;;;;4962750;28;20034;-85
2021/12/29 09:44:24;;;;;;;77.10;14.65;;;;;;;;;;4961091;28;20026;-86
2021/12/29 09:46:52;;;;;;;80.60;15.40;;;;;;;;;;4965183;28;20038;-84
2021/12/29 09:49:18;;;;;;;65.75;13.57;;;;;;;;;;4976458;28;20121;-85
2021/12/29 09:51:44;;;;;;;79.13;13.73;;;;;;;;;;4983023;28;20166;-85
2021/12/29 09:54:11;;;;;;;89.68;16.30;;;;;;;;;;4960526;28;20045;-85
2021/12/29 09:56:37;;;;;;;78.82;12.20;;;;;;;;;;4964969;28;20062;-85
2021/12/29 09:59:03;;;;;;;42.83;9.13;;;;;;;;;;4964575;28;20062;-85
2021/12/29 10:01:29;;;;;;;70.53;10.98;;;;;;;;;;4968591;28;20069;-86
2021/12/29 10:03:55;;;;;;;66.32;12.15;;;;;;;;;;4966123;28;20445;-85
2021/12/29 10:06:22;;;;;;;64.70;11.43;;;;;;;;;;4963121;28;20620;-85
2021/12/29 10:08:48;;;;;;;68.60;13.63;;;;;;;;;;4967323;28;20034;-84
2021/12/29 10:11:28;;;;;;;96.88;15.55;;;;;;;;;;4960762;28;20025;-85
2021/12/29 10:13:55;;;;;;;75.13;12.82;;;;;;;;;;4962515;28;20038;-85
2021/12/29 10:16:24;;;;;;;79.75;13.45;;;;;;;;;;4962003;28;20420;-85
2021/12/29 10:18:54;;;;;;;54.75;11.70;;;;;;;;;;4965945;28;20109;-86
2021/12/29 10:21:28;;;;;;;73.80;12.75;;;;;;;;;;4964543;28;20026;-86
2021/12/29 10:23:55;;;;;;;29.38;7.75;;;;;;;;;;4957221;28;20030;-85
2021/12/29 10:26:23;;;;;;;65.38;12.73;;;;;;;;;;4964663;28;20038;-85
2021/12/29 10:28:53;;;;;;;69.97;13.57;;;;;;;;;;4964841;28;20038;-86
2021/12/29 10:31:29;;;;;;;51.45;11.23;;;;;;;;;;4962748;28;20061;-85
2021/12/29 10:34:00;;;;;;;54.40;10.45;;;;;;;;;;4961808;28;20118;-85
2021/12/29 10:36:28;;;;;;;44.42;11.27;;;;;;;;;;4965551;28;20438;-85
2021/12/29 10:38:54;;;;;;;40.15;10.13;;;;;;;;;;4963658;28;20050;-85
2021/12/29 10:41:20;;;;;;;41.40;9.60;;;;;;;;;;4961124;28;20030;-85
2021/12/29 10:43:51;;;;;;;72.28;13.70;;;;;;;;;;4969369;28;20041;-85
2021/12/29 10:46:21;;;;;;;49.53;11.15;;;;;;;;;;4965290;28;20513;-85
2021/12/29 10:49:00;;;;;;;45.85;10.52;;;;;;;;;;4983539;28;20111;-85
2021/12/29 10:51:28;;;;;;;36.50;9.68;;;;;;;;;;4955191;28;20486;-85
2021/12/29 10:54:03;;;;;;;50.88;10.77;;;;;;;;;;4982687;28;20494;-86
2021/12/29 10:56:29;;;;;;;36.33;9.40;;;;;;;;;;4969046;28;20022;-86
2021/12/29 10:58:56;;;;;;;57.15;12.43;;;;;;;;;;4966719;28;20034;-86
2021/12/29 11:01:25;;;;;;;34.70;10.32;;;;;;;;;;4972345;28;20034;-86
2021/12/29 11:03:53;;;;;;;47.50;12.63;;;;;;;;;;4977378;28;20038;-85
2021/12/29 11:06:23;;;;;;;48.22;11.25;;;;;;;;;;4983926;28;20026;-85
2021/12/29 11:08:53;;;;;;;45.20;10.30;;;;;;;;;;4967479;28;20052;-85
2021/12/29 11:11:24;;;;;;;42.53;8.60;;;;;;;;;;4969373;28;20507;-85
2021/12/29 11:13:53;;;;;;;46.92;10.80;;;;;;;;;;4965496;28;20483;-86
2021/12/29 11:16:20;;;;;;;45.55;10.85;;;;;;;;;;4984291;28;20466;-85
2021/12/29 11:18:50;;;;;;;37.25;10.02;;;;;;;;;;4966993;28;20466;-86
2021/12/29 11:21:23;;;;;;;33.85;8.52;;;;;;;;;;4962430;28;20556;-87
2021/12/29 11:23:49;;;;;;;37.60;10.93;;;;;;;;;;4966417;28;20023;-86
2021/12/29 11:26:15;;;;;;;32.08;8.85;;;;;;;;;;4964221;28;20037;-87
2021/12/29 11:28:41;;;;;;;43.72;9.45;;;;;;;;;;4979446;28;20426;-86
2021/12/29 11:31:11;;;;;;;41.50;10.32;;;;;;;;;;4963425;28;20035;-86
2021/12/29 11:33:37;;;;;;;41.47;10.38;;;;;;;;;;4977936;28;20018;-86
2021/12/29 11:36:04;;;;;;;32.85;9.77;;;;;;;;;;4963323;28;20034;-85
2021/12/29 11:38:31;;;;;;;35.13;9.55;;;;;;;;;;4966228;28;20062;-85
2021/12/29 11:40:58;;;;;;;31.95;10.32;;;;;;;;;;4958818;28;20105;-85
2021/12/29 11:43:25;;;;;;;39.63;9.98;;;;;;;;;;4966315;28;20414;-85
2021/12/29 11:45:52;;;;;;;38.92;11.50;;;;;;;;;;4967794;28;20126;-85
2021/12/29 11:48:23;;;;;;;36.53;8.68;;;;;;;;;;4976709;28;20037;-85
2021/12/29 11:50:53;;;;;;;25.75;8.25;;;;;;;;;;4965417;28;20118;-85
2021/12/29 11:53:31;;;;;;;54.05;10.30;;;;;;;;;;4963384;28;20029;-86
2021/12/29 11:56:18;;;;;;;39.67;8.20;;;;;;;;;;4966584;28;20244;-86
2021/12/29 11:58:49;;;;;;;30.10;9.05;;;;;;;;;;4963556;28;20113;-86
2021/12/29 12:01:21;;;;;;;33.80;8.90;;;;;;;;;;4964440;28;20441;-86
2021/12/29 12:03:55;;;;;;;48.05;9.93;;;;;;;;;;4966379;28;20027;-85
2021/12/29 12:06:27;;;;;;;39.60;10.10;;;;;;;;;;4960191;28;20113;-85
2021/12/29 12:09:11;;;;;;;37.30;9.30;;;;;;;;;;4958787;28;20384;-86
2021/12/29 12:11:39;;;;;;;54.90;10.02;;;;;;;;;;4960859;28;20027;-86
2021/12/29 12:14:17;;;;;;;38.63;9.32;;;;;;;;;;4976478;28;20089;-86
2021/12/29 12:16:57;;;;;;;30.50;7.82;;;;;;;;;;4971950;28;20038;-85
2021/12/29 12:19:28;;;;;;;32.30;8.88;;;;;;;;;;4967287;28;20174;-86
2021/12/29 12:22:06;;;;;;;40.08;9.73;;;;;;;;;;4970638;28;20571;-85
2021/12/29 12:24:32;;;;;;;43.03;9.77;;;;;;;;;;4980616;28;20022;-85
2021/12/29 12:26:58;;;;;;;39.40;8.98;;;;;;;;;;4969969;28;20097;-86
2021/12/29 12:29:27;;;;;;;41.35;8.65;;;;;;;;;;4963477;28;20026;-87
2021/12/29 12:32:01;;;;;;;36.83;8.80;;;;;;;;;;4961811;28;20026;-85
2021/12/29 12:34:27;;;;;;;41.70;8.93;;;;;;;;;;4972050;28;20541;-85
2021/12/29 12:36:53;;;;;;;29.63;7.40;;;;;;;;;;4982745;28;20410;-85
2021/12/29 12:39:21;;;;;;;29.67;7.13;;;;;;;;;;4969431;28;20026;-85
2021/12/29 12:41:48;;;;;;;26.15;7.05;;;;;;;;;;4956384;28;20119;-85
2021/12/29 12:44:15;;;;;;;22.85;7.35;;;;;;;;;;4969754;28;20038;-85
2021/12/29 12:46:49;;;;;;;34.58;7.18;;;;;;;;;;4964929;28;20469;-84
2021/12/29 12:49:25;;;;;;;29.42;6.65;;;;;;;;;;4966793;28;20411;-84
2021/12/29 12:51:57;;;;;;;32.28;7.10;;;;;;;;;;4946951;28;20502;-85
2021/12/29 12:54:25;;;;;;;40.90;7.72;;;;;;;;;;4960509;28;20483;-85
2021/12/29 12:56:51;;;;;;;30.15;7.43;;;;;;;;;;4943508;28;20380;-85
2021/12/29 12:59:17;;;;;;;28.92;5.90;;;;;;;;;;4943802;28;20046;-85
2021/12/29 13:01:46;;;;;;;41.40;8.77;;;;;;;;;;4945946;28;20153;-85
2021/12/29 13:04:13;;;;;;;30.95;7.38;;;;;;;;;;4946710;28;20380;-85
2021/12/29 13:06:40;;;;;;;24.52;6.38;;;;;;;;;;4949000;28;20035;-85
2021/12/29 13:09:08;;;;;;;21.17;7.13;;;;;;;;;;4943100;28;20126;-85
2021/12/29 13:11:36;;;;;;;15.93;6.28;;;;;;;;;;4959048;28;20034;-85
2021/12/29 13:14:03;;;;;;;31.55;6.22;;;;;;;;;;4946191;28;20035;-85
2021/12/29 13:16:30;;;;;;;35.58;6.97;;;;;;;;;;4948790;28;20067;-85
2021/12/29 13:18:57;;;;;;;35.83;7.57;;;;;;;;;;4941816;28;20037;-85
2021/12/29 13:21:25;;;;;;;32.15;7.68;;;;;;;;;;4944557;28;20047;-85
2021/12/29 13:23:52;;;;;;;31.63;7.05;;;;;;;;;;4950625;28;20054;-85
2021/12/29 13:26:18;;;;;;;44.08;6.65;;;;;;;;;;4959821;28;20122;-85
2021/12/29 13:28:44;;;;;;;34.97;8.35;;;;;;;;;;4960565;28;20027;-86
2021/12/29 13:31:10;;;;;;;37.38;7.70;;;;;;;;;;4946921;28;20484;-86
2021/12/29 13:33:42;;;;;;;32.25;8.07;;;;;;;;;;4954315;28;20110;-85
2021/12/29 13:36:09;;;;;;;36.35;8.40;;;;;;;;;;4952563;28;20043;-85
2021/12/29 13:38:36;;;;;;;32.78;8.48;;;;;;;;;;4949509;28;20038;-85
2021/12/29 13:41:07;;;;;;;34.60;9.13;;;;;;;;;;4942322;28;20038;-86
2021/12/29 13:43:36;;;;;;;32.90;9.63;;;;;;;;;;4957172;28;21206;-86
2021/12/29 13:46:12;;;;;;;30.25;6.88;;;;;;;;;;4947918;28;20023;-85
2021/12/29 13:48:39;;;;;;;28.73;7.72;;;;;;;;;;4954693;28;20035;-84
2021/12/29 13:51:10;;;;;;;27.48;7.38;;;;;;;;;;4956777;28;20047;-85
2021/12/29 13:53:38;;;;;;;32.35;7.07;;;;;;;;;;4943125;28;20503;-84
2021/12/29 13:56:09;;;;;;;36.78;7.68;;;;;;;;;;4938411;28;20046;-85
2021/12/29 13:58:35;;;;;;;34.03;6.72;;;;;;;;;;4942400;28;20023;-86
2021/12/29 14:01:03;;;;;;;25.92;7.35;;;;;;;;;;4946246;28;20034;-85
2021/12/29 14:03:29;;;;;;;25.05;6.40;;;;;;;;;;4961106;28;20026;-85
2021/12/29 14:05:59;;;;;;;36.13;7.90;;;;;;;;;;4958652;28;20038;-86
2021/12/29 14:08:26;;;;;;;24.83;7.03;;;;;;;;;;4944733;28;20573;-85
2021/12/29 14:10:52;;;;;;;33.80;8.60;;;;;;;;;;4936900;28;20041;-85
2021/12/29 14:13:19;;;;;;;31.90;8.75;;;;;;;;;;4940069;28;20425;-85
2021/12/29 14:15:47;;;;;;;24.48;7.55;;;;;;;;;;4937732;28;20035;-86
2021/12/29 14:18:21;;;;;;;28.20;7.05;;;;;;;;;;4944856;28;20038;-85
2021/12/29 14:20:48;;;;;;;29.42;7.45;;;;;;;;;;4957018;28;20117;-85
2021/12/29 14:23:14;;;;;;;23.80;7.95;;;;;;;;;;4942432;28;20619;-85
2021/12/29 14:25:43;;;;;;;26.02;7.22;;;;;;;;;;4958524;28;20475;-85
2021/12/29 14:28:15;;;;;;;34.03;8.85;;;;;;;;;;4938166;28;20031;-85